createdAt,value
2023-08-07T00:00:02.535Z,1001.83
2023-08-07T00:01:03.091Z,1001.87
2023-08-07T00:02:01.079Z,1001.83
2023-08-07T00:03:01.109Z,1001.86
2023-08-07T00:04:01.084Z,1001.81
2023-08-07T00:05:01.094Z,1001.81
2023-08-07T00:06:04.769Z,1001.75
2023-08-07T00:07:02.176Z,1001.78
2023-08-07T00:08:01.413Z,1001.78
2023-08-07T00:09:01.237Z,1001.77
2023-08-07T00:10:01.231Z,1001.78
2023-08-07T00:11:06.760Z,1001.78
2023-08-07T00:12:01.169Z,1001.76
2023-08-07T00:13:01.194Z,1001.75
2023-08-07T00:14:02.034Z,1001.79
2023-08-07T00:15:02.876Z,1001.77
2023-08-07T00:16:10.595Z,1001.77
2023-08-07T00:17:01.177Z,1001.82
2023-08-07T00:18:01.242Z,1001.74
2023-08-07T00:19:01.280Z,1001.77
2023-08-07T00:20:08.082Z,1001.76
2023-08-07T00:21:12.569Z,1001.83
2023-08-07T00:22:01.095Z,1001.75
2023-08-07T00:23:01.112Z,1001.78
2023-08-07T00:24:01.114Z,1001.78
2023-08-07T00:25:01.099Z,1001.82
2023-08-07T00:26:16.338Z,1001.79
2023-08-07T00:27:02.121Z,1001.76
2023-08-07T00:28:02.172Z,1001.72
2023-08-07T00:29:01.159Z,1001.75
2023-08-07T00:30:01.048Z,1001.75
2023-08-07T00:31:01.040Z,1001.74
2023-08-07T00:32:01.053Z,1001.74
2023-08-07T00:33:01.133Z,1001.76
2023-08-07T00:34:01.309Z,1001.76
2023-08-07T00:35:01.064Z,1001.76
2023-08-07T00:36:01.458Z,1001.72
2023-08-07T00:37:01.090Z,1001.74
2023-08-07T00:38:01.111Z,1001.78
2023-08-07T00:39:01.110Z,1001.75
2023-08-07T00:40:01.213Z,1001.75
2023-08-07T00:41:01.168Z,1001.74
2023-08-07T00:42:01.138Z,1001.73
2023-08-07T00:43:01.134Z,1001.74
2023-08-07T00:44:01.467Z,1001.75
2023-08-07T00:45:01.039Z,1001.74
2023-08-07T00:46:01.045Z,1001.7
2023-08-07T00:47:01.528Z,1001.73
2023-08-07T00:48:01.101Z,1001.68
2023-08-07T00:49:01.055Z,1001.67
2023-08-07T00:50:01.101Z,1001.66
2023-08-07T00:51:01.087Z,1001.67
2023-08-07T00:52:01.100Z,1001.65
2023-08-07T00:53:01.112Z,1001.62
2023-08-07T00:54:01.118Z,1001.6
2023-08-07T00:55:02.071Z,1001.61
2023-08-07T00:56:01.175Z,1001.57
2023-08-07T00:57:01.190Z,1001.57
2023-08-07T00:58:01.542Z,1001.55
2023-08-07T00:59:00.871Z,1001.55
2023-08-07T01:00:01.141Z,1001.51
2023-08-07T01:01:01.100Z,1001.5
2023-08-07T01:02:01.868Z,1001.52
2023-08-07T01:03:01.136Z,1001.47
2023-08-07T01:04:01.499Z,1001.45
2023-08-07T01:05:02.117Z,1001.51
2023-08-07T01:06:01.076Z,1001.43
2023-08-07T01:07:01.239Z,1001.51
2023-08-07T01:08:01.092Z,1001.5
2023-08-07T01:09:01.095Z,1001.55
2023-08-07T01:10:01.211Z,1001.57
2023-08-07T01:11:01.100Z,1001.61
2023-08-07T01:12:01.127Z,1001.58
2023-08-07T01:13:01.750Z,1001.58
2023-08-07T01:14:02.197Z,1001.59
2023-08-07T01:15:01.445Z,1001.62
2023-08-07T01:16:01.932Z,1001.62
2023-08-07T01:17:01.205Z,1001.63
2023-08-07T01:18:01.092Z,1001.63
2023-08-07T01:19:01.341Z,1001.58
2023-08-07T01:20:01.483Z,1001.64
2023-08-07T01:21:01.069Z,1001.6
2023-08-07T01:22:01.077Z,1001.59
2023-08-07T01:23:01.141Z,1001.61
2023-08-07T01:24:00.672Z,1001.63
2023-08-07T01:25:00.388Z,1001.61
2023-08-07T01:26:00.321Z,1001.63
2023-08-07T01:26:59.972Z,1001.64
2023-08-07T01:27:59.673Z,1001.65
2023-08-07T01:29:01.483Z,1001.66
2023-08-07T01:30:01.176Z,1001.74
2023-08-07T01:31:01.075Z,1001.76
2023-08-07T01:32:01.036Z,1001.76
2023-08-07T01:33:01.081Z,1001.74
2023-08-07T01:34:01.056Z,1001.75
2023-08-07T01:35:01.501Z,1001.75
2023-08-07T01:36:01.050Z,1001.75
2023-08-07T01:37:01.059Z,1001.81
2023-08-07T01:38:01.082Z,1001.77
2023-08-07T01:39:01.565Z,1001.81
2023-08-07T01:40:01.186Z,1001.83
2023-08-07T01:41:01.048Z,1001.84
2023-08-07T01:42:02.799Z,1001.89
2023-08-07T01:43:00.905Z,1001.86
2023-08-07T01:44:00.624Z,1001.89
2023-08-07T01:45:00.411Z,1001.94
2023-08-07T01:46:00.298Z,1001.93
2023-08-07T01:47:06.541Z,1001.93
2023-08-07T01:48:01.327Z,1001.97
2023-08-07T01:49:01.045Z,1001.99
2023-08-07T01:50:01.113Z,1002.01
2023-08-07T01:51:00.737Z,1002.04
2023-08-07T01:52:08.037Z,1001.98
2023-08-07T01:53:01.526Z,1002.03
2023-08-07T01:54:01.083Z,1002.01
2023-08-07T01:55:01.139Z,1002.02
2023-08-07T01:56:01.313Z,1002
2023-08-07T01:57:11.811Z,1002.06
2023-08-07T01:58:01.099Z,1002.02
2023-08-07T01:59:01.096Z,1002.04
2023-08-07T02:00:01.132Z,1002.04
2023-08-07T02:01:01.141Z,1002.02
2023-08-07T02:02:14.695Z,1002.05
2023-08-07T02:03:01.264Z,1002.08
2023-08-07T02:04:02.607Z,1002.1
2023-08-07T02:05:02.025Z,1002.08
2023-08-07T02:06:01.470Z,1002.1
2023-08-07T02:07:01.176Z,1002.11
2023-08-07T02:08:01.071Z,1002.12
2023-08-07T02:09:00.661Z,1002.12
2023-08-07T02:10:00.260Z,1002.14
2023-08-07T02:11:00.077Z,1002.16
2023-08-07T02:11:59.941Z,1002.16
2023-08-07T02:12:59.661Z,1002.15
2023-08-07T02:14:01.818Z,1002.14
2023-08-07T02:15:01.419Z,1002.15
2023-08-07T02:16:01.313Z,1002.19
2023-08-07T02:17:01.134Z,1002.15
2023-08-07T02:18:01.158Z,1002.13
2023-08-07T02:19:01.201Z,1002.12
2023-08-07T02:20:01.102Z,1002.16
2023-08-07T02:21:01.548Z,1002.15
2023-08-07T02:22:01.054Z,1002.18
2023-08-07T02:23:01.055Z,1002.16
2023-08-07T02:24:01.012Z,1002.17
2023-08-07T02:25:01.283Z,1002.2
2023-08-07T02:26:02.251Z,1002.14
2023-08-07T02:27:01.076Z,1002.18
2023-08-07T02:28:01.384Z,1002.14
2023-08-07T02:29:01.579Z,1002.16
2023-08-07T02:30:01.622Z,1002.1
2023-08-07T02:31:02.164Z,1002.13
2023-08-07T02:32:01.112Z,1002.14
2023-08-07T02:33:01.176Z,1002.15
2023-08-07T02:34:01.126Z,1002.18
2023-08-07T02:35:00.735Z,1002.19
2023-08-07T02:36:00.332Z,1002.2
2023-08-07T02:37:00.353Z,1002.19
2023-08-07T02:37:59.920Z,1002.19
2023-08-07T02:38:59.522Z,1002.21
2023-08-07T02:40:01.137Z,1002.2
2023-08-07T02:41:01.166Z,1002.18
2023-08-07T02:42:01.281Z,1002.18
2023-08-07T02:43:01.094Z,1002.19
2023-08-07T02:44:01.023Z,1002.19
2023-08-07T02:45:01.302Z,1002.16
2023-08-07T02:46:02.053Z,1002.19
2023-08-07T02:47:01.124Z,1002.18
2023-08-07T02:48:01.184Z,1002.17
2023-08-07T02:49:01.122Z,1002.15
2023-08-07T02:50:01.353Z,1002.18
2023-08-07T02:51:02.049Z,1002.13
2023-08-07T02:52:01.964Z,1002.13
2023-08-07T02:53:01.039Z,1002.12
2023-08-07T02:54:01.048Z,1002.12
2023-08-07T02:55:01.086Z,1002.09
2023-08-07T02:56:01.060Z,1002.08
2023-08-07T02:57:01.083Z,1002.11
2023-08-07T02:58:01.302Z,1002.13
2023-08-07T02:59:01.211Z,1002.09
2023-08-07T03:00:01.118Z,1002.13
2023-08-07T03:01:01.131Z,1002.11
2023-08-07T03:02:01.265Z,1002.08
2023-08-07T03:03:01.872Z,1002.16
2023-08-07T03:04:01.830Z,1002.14
2023-08-07T03:05:01.194Z,1002.14
2023-08-07T03:06:01.243Z,1002.13
2023-08-07T03:07:01.363Z,1002.18
2023-08-07T03:08:02.401Z,1002.16
2023-08-07T03:09:01.448Z,1002.18
2023-08-07T03:10:01.099Z,1002.16
2023-08-07T03:11:01.062Z,1002.18
2023-08-07T03:12:00.755Z,1002.2
2023-08-07T03:13:00.381Z,1002.16
2023-08-07T03:14:00.161Z,1002.14
2023-08-07T03:14:59.749Z,1002.18
2023-08-07T03:16:02.347Z,1002.18
2023-08-07T03:17:01.122Z,1002.18
2023-08-07T03:18:04.024Z,1002.2
2023-08-07T03:19:01.105Z,1002.18
2023-08-07T03:20:01.127Z,1002.22
2023-08-07T03:21:01.748Z,1002.19
2023-08-07T03:22:01.441Z,1002.21
2023-08-07T03:23:06.066Z,1002.23
2023-08-07T03:24:02.150Z,1002.23
2023-08-07T03:25:00.791Z,1002.22
2023-08-07T03:26:12.466Z,1002.21
2023-08-07T03:27:01.023Z,1002.25
2023-08-07T03:28:08.343Z,1002.24
2023-08-07T03:29:01.033Z,1002.21
2023-08-07T03:30:01.349Z,1002.19
2023-08-07T03:31:01.812Z,1002.23
2023-08-07T03:32:00.985Z,1002.18
2023-08-07T03:33:10.941Z,1002.23
2023-08-07T03:34:01.770Z,1002.25
2023-08-07T03:35:01.134Z,1002.27
2023-08-07T03:36:01.167Z,1002.28
2023-08-07T03:37:01.127Z,1002.29
2023-08-07T03:38:14.610Z,1002.3
2023-08-07T03:39:01.053Z,1002.3
2023-08-07T03:40:00.790Z,1002.3
2023-08-07T03:41:00.540Z,1002.32
2023-08-07T03:42:00.222Z,1002.3
2023-08-07T03:42:59.931Z,1002.3
2023-08-07T03:43:59.623Z,1002.33
2023-08-07T03:45:01.754Z,1002.35
2023-08-07T03:46:03.407Z,1002.3
2023-08-07T03:47:01.090Z,1002.3
2023-08-07T03:48:01.129Z,1002.3
2023-08-07T03:49:01.103Z,1002.31
2023-08-07T03:50:01.079Z,1002.28
2023-08-07T03:51:01.049Z,1002.27
2023-08-07T03:52:01.266Z,1002.34
2023-08-07T03:53:01.163Z,1002.32
2023-08-07T03:54:02.054Z,1002.32
2023-08-07T03:55:01.168Z,1002.33
2023-08-07T03:56:01.359Z,1002.3
2023-08-07T03:57:01.252Z,1002.34
2023-08-07T03:58:02.292Z,1002.37
2023-08-07T03:59:01.844Z,1002.35
2023-08-07T04:00:01.976Z,1002.33
2023-08-07T04:01:01.108Z,1002.32
2023-08-07T04:02:01.607Z,1002.3
2023-08-07T04:03:01.142Z,1002.31
2023-08-07T04:04:01.838Z,1002.29
2023-08-07T04:05:01.126Z,1002.31
2023-08-07T04:06:01.112Z,1002.26
2023-08-07T04:07:01.123Z,1002.28
2023-08-07T04:08:01.034Z,1002.32
2023-08-07T04:09:01.412Z,1002.29
2023-08-07T04:10:01.777Z,1002.25
2023-08-07T04:11:01.173Z,1002.31
2023-08-07T04:12:00.670Z,1002.27
2023-08-07T04:13:00.322Z,1002.29
2023-08-07T04:14:00.046Z,1002.33
2023-08-07T04:14:59.614Z,1002.32
2023-08-07T04:16:02.101Z,1002.39
2023-08-07T04:17:01.404Z,1002.36
2023-08-07T04:18:01.486Z,1002.34
2023-08-07T04:19:02.164Z,1002.41
2023-08-07T04:20:01.109Z,1002.37
2023-08-07T04:21:01.135Z,1002.43
2023-08-07T04:22:01.133Z,1002.42
2023-08-07T04:23:01.135Z,1002.37
2023-08-07T04:24:01.162Z,1002.41
2023-08-07T04:25:01.800Z,1002.4
2023-08-07T04:26:01.771Z,1002.43
2023-08-07T04:27:01.419Z,1002.44
2023-08-07T04:28:02.247Z,1002.45
2023-08-07T04:29:01.047Z,1002.5
2023-08-07T04:30:01.168Z,1002.45
2023-08-07T04:31:02.551Z,1002.51
2023-08-07T04:32:01.131Z,1002.47
2023-08-07T04:33:00.888Z,1002.54
2023-08-07T04:34:01.132Z,1002.5
2023-08-07T04:35:00.909Z,1002.48
2023-08-07T04:36:01.184Z,1002.51
2023-08-07T04:37:01.361Z,1002.52
2023-08-07T04:38:01.280Z,1002.49
2023-08-07T04:39:02.046Z,1002.53
2023-08-07T04:40:01.143Z,1002.52
2023-08-07T04:41:01.122Z,1002.51
2023-08-07T04:42:01.041Z,1002.53
2023-08-07T04:43:01.035Z,1002.57
2023-08-07T04:44:01.049Z,1002.63
2023-08-07T04:45:01.136Z,1002.63
2023-08-07T04:46:01.160Z,1002.6
2023-08-07T04:47:01.196Z,1002.63
2023-08-07T04:48:01.181Z,1002.62
2023-08-07T04:49:00.977Z,1002.63
2023-08-07T04:50:01.071Z,1002.66
2023-08-07T04:51:01.110Z,1002.63
2023-08-07T04:52:07.218Z,1002.64
2023-08-07T04:53:00.810Z,1002.72
2023-08-07T04:54:00.401Z,1002.69
2023-08-07T04:55:00.049Z,1002.66
2023-08-07T04:55:59.936Z,1002.73
2023-08-07T04:56:59.484Z,1002.67
2023-08-07T04:58:02.137Z,1002.68
2023-08-07T04:59:01.176Z,1002.73
2023-08-07T05:00:01.056Z,1002.74
2023-08-07T05:01:01.132Z,1002.77
2023-08-07T05:02:01.088Z,1002.72
2023-08-07T05:03:01.462Z,1002.75
2023-08-07T05:04:01.137Z,1002.77
2023-08-07T05:05:01.866Z,1002.78
2023-08-07T05:06:01.506Z,1002.79
2023-08-07T05:07:01.104Z,1002.76
2023-08-07T05:08:01.103Z,1002.78
2023-08-07T05:09:04.058Z,1002.79
2023-08-07T05:10:02.834Z,1002.86
2023-08-07T05:11:01.138Z,1002.78
2023-08-07T05:12:01.186Z,1002.83
2023-08-07T05:13:01.070Z,1002.91
2023-08-07T05:14:05.411Z,1002.87
2023-08-07T05:15:01.432Z,1002.87
2023-08-07T05:16:02.252Z,1002.96
2023-08-07T05:17:01.070Z,1002.96
2023-08-07T05:18:01.097Z,1002.95
2023-08-07T05:19:09.482Z,1003.01
2023-08-07T05:20:01.191Z,1002.99
2023-08-07T05:21:01.182Z,1002.99
2023-08-07T05:22:00.897Z,1003.02
2023-08-07T05:23:00.886Z,1002.98
2023-08-07T05:24:11.276Z,1003
2023-08-07T05:25:00.704Z,1003.01
2023-08-07T05:26:00.522Z,1003
2023-08-07T05:27:00.469Z,1002.99
2023-08-07T05:28:00.045Z,1002.97
2023-08-07T05:29:13.312Z,1003
2023-08-07T05:30:01.370Z,1003
2023-08-07T05:31:01.197Z,1003
2023-08-07T05:32:00.644Z,1003.01
2023-08-07T05:33:00.351Z,1002.96
2023-08-07T05:34:00.064Z,1002.98
2023-08-07T05:34:59.846Z,1002.91
2023-08-07T05:36:01.505Z,1002.97
2023-08-07T05:37:02.587Z,1002.96
2023-08-07T05:38:01.803Z,1002.97
2023-08-07T05:39:01.313Z,1002.95
2023-08-07T05:40:02.110Z,1002.94
2023-08-07T05:41:01.724Z,1003.01
2023-08-07T05:42:01.126Z,1002.98
2023-08-07T05:43:01.129Z,1003
2023-08-07T05:44:01.036Z,1002.97
2023-08-07T05:45:01.141Z,1003.03
2023-08-07T05:46:01.069Z,1003.03
2023-08-07T05:47:00.774Z,1003.06
2023-08-07T05:48:00.364Z,1003.01
2023-08-07T05:49:00.203Z,1003.03
2023-08-07T05:49:59.846Z,1003.09
2023-08-07T05:51:02.045Z,1003.13
2023-08-07T05:52:02.174Z,1003.12
2023-08-07T05:53:00.835Z,1003.12
2023-08-07T05:54:01.110Z,1003.13
2023-08-07T05:55:01.115Z,1003.15
2023-08-07T05:56:01.122Z,1003.17
2023-08-07T05:57:01.377Z,1003.19
2023-08-07T05:58:01.506Z,1003.18
2023-08-07T05:59:01.726Z,1003.18
2023-08-07T06:00:03.447Z,1003.23
2023-08-07T06:01:01.550Z,1003.25
2023-08-07T06:02:00.466Z,1003.23
2023-08-07T06:03:00.438Z,1003.26
2023-08-07T06:04:00.048Z,1003.23
2023-08-07T06:05:01.050Z,1003.33
2023-08-07T06:06:01.029Z,1003.31
2023-08-07T06:07:00.657Z,1003.27
2023-08-07T06:08:00.353Z,1003.32
2023-08-07T06:09:01.064Z,1003.31
2023-08-07T06:10:01.019Z,1003.37
2023-08-07T06:11:01.021Z,1003.41
2023-08-07T06:12:01.124Z,1003.41
2023-08-07T06:13:01.269Z,1003.4
2023-08-07T06:14:00.627Z,1003.38
2023-08-07T06:15:00.739Z,1003.41
2023-08-07T06:16:00.298Z,1003.46
2023-08-07T06:16:59.956Z,1003.42
2023-08-07T06:17:59.537Z,1003.52
2023-08-07T06:19:01.661Z,1003.48
2023-08-07T06:20:01.209Z,1003.48
2023-08-07T06:21:01.888Z,1003.47
2023-08-07T06:22:02.280Z,1003.5
2023-08-07T06:23:01.200Z,1003.49
2023-08-07T06:24:01.195Z,1003.49
2023-08-07T06:25:01.211Z,1003.47
2023-08-07T06:26:01.329Z,1003.49
2023-08-07T06:27:02.048Z,1003.46
2023-08-07T06:28:02.059Z,1003.38
2023-08-07T06:29:02.094Z,1003.44
2023-08-07T06:30:01.414Z,1003.44
2023-08-07T06:31:01.178Z,1003.4
2023-08-07T06:32:01.432Z,1003.39
2023-08-07T06:33:02.145Z,1003.4
2023-08-07T06:34:00.728Z,1003.47
2023-08-07T06:35:00.433Z,1003.49
2023-08-07T06:36:00.051Z,1003.54
2023-08-07T06:36:59.842Z,1003.52
2023-08-07T06:38:01.670Z,1003.5
2023-08-07T06:39:01.345Z,1003.51
2023-08-07T06:40:02.257Z,1003.53
2023-08-07T06:41:02.546Z,1003.46
2023-08-07T06:42:01.293Z,1003.52
2023-08-07T06:43:01.108Z,1003.52
2023-08-07T06:44:01.069Z,1003.46
2023-08-07T06:45:01.022Z,1003.46
2023-08-07T06:46:01.185Z,1003.52
2023-08-07T06:47:02.351Z,1003.53
2023-08-07T06:48:02.213Z,1003.55
2023-08-07T06:49:01.046Z,1003.44
2023-08-07T06:50:00.853Z,1003.55
2023-08-07T06:51:01.066Z,1003.58
2023-08-07T06:52:01.083Z,1003.56
2023-08-07T06:53:01.093Z,1003.59
2023-08-07T06:54:00.622Z,1003.57
2023-08-07T06:55:00.379Z,1003.52
2023-08-07T06:56:00.203Z,1003.46
2023-08-07T06:56:59.863Z,1003.57
2023-08-07T06:58:01.518Z,1003.59
2023-08-07T06:59:01.128Z,1003.62
2023-08-07T07:00:04.112Z,1003.6
2023-08-07T07:01:01.130Z,1003.66
2023-08-07T07:02:01.294Z,1003.63
2023-08-07T07:03:01.662Z,1003.56
2023-08-07T07:04:02.007Z,1003.64
2023-08-07T07:05:06.806Z,1003.62
2023-08-07T07:06:01.061Z,1003.61
2023-08-07T07:07:01.052Z,1003.67
2023-08-07T07:08:01.079Z,1003.65
2023-08-07T07:09:01.098Z,1003.71
2023-08-07T07:10:09.827Z,1003.72
2023-08-07T07:11:01.097Z,1003.79
2023-08-07T07:12:01.100Z,1003.81
2023-08-07T07:13:00.970Z,1003.8
2023-08-07T07:14:00.723Z,1003.73
2023-08-07T07:15:11.045Z,1003.81
2023-08-07T07:16:01.680Z,1003.79
2023-08-07T07:17:01.113Z,1003.86
2023-08-07T07:18:01.217Z,1003.86
2023-08-07T07:19:01.071Z,1003.87
2023-08-07T07:20:15.629Z,1003.8
2023-08-07T07:21:01.491Z,1003.86
2023-08-07T07:22:00.653Z,1003.88
2023-08-07T07:23:00.336Z,1003.87
2023-08-07T07:24:00.042Z,1003.86
2023-08-07T07:24:59.737Z,1003.87
2023-08-07T07:26:01.916Z,1003.89
2023-08-07T07:27:01.762Z,1003.93
2023-08-07T07:28:00.708Z,1004
2023-08-07T07:29:00.372Z,1004
2023-08-07T07:30:00.169Z,1003.98
2023-08-07T07:31:00.004Z,1003.93
2023-08-07T07:32:00.053Z,1004.01
2023-08-07T07:33:00.056Z,1004
2023-08-07T07:33:59.691Z,1003.95
2023-08-07T07:35:01.344Z,1004.06
2023-08-07T07:36:02.395Z,1004
2023-08-07T07:37:01.055Z,1004.03
2023-08-07T07:38:01.055Z,1004.02
2023-08-07T07:39:01.088Z,1004.04
2023-08-07T07:40:01.100Z,1004.03
2023-08-07T07:41:01.149Z,1004.03
2023-08-07T07:42:01.508Z,1004.08
2023-08-07T07:43:01.413Z,1004
2023-08-07T07:44:02.159Z,1004.12
2023-08-07T07:45:04.187Z,1004.1
2023-08-07T07:46:02.475Z,1004.19
2023-08-07T07:47:01.131Z,1004.14
2023-08-07T07:48:01.203Z,1004.18
2023-08-07T07:49:01.121Z,1004.11
2023-08-07T07:50:01.146Z,1004.18
2023-08-07T07:51:01.050Z,1004.14
2023-08-07T07:52:01.227Z,1004.15
2023-08-07T07:53:01.110Z,1004.15
2023-08-07T07:55:01.319Z,1004.21
2023-08-07T07:56:01.120Z,1004.31
2023-08-07T07:57:01.202Z,1004.24
2023-08-07T07:58:01.095Z,1004.28
2023-08-07T07:59:01.113Z,1004.29
2023-08-07T08:00:01.146Z,1004.3
2023-08-07T08:01:01.226Z,1004.28
2023-08-07T08:02:01.840Z,1004.35
2023-08-07T08:03:01.184Z,1004.33
2023-08-07T08:04:01.942Z,1004.32
2023-08-07T08:05:01.229Z,1004.29
2023-08-07T08:06:01.441Z,1004.35
2023-08-07T08:07:01.050Z,1004.31
2023-08-07T08:08:01.105Z,1004.38
2023-08-07T08:09:01.060Z,1004.35
2023-08-07T08:10:01.031Z,1004.37
2023-08-07T08:11:03.585Z,1004.36
2023-08-07T08:12:01.418Z,1004.32
2023-08-07T08:13:01.091Z,1004.4
2023-08-07T08:14:01.090Z,1004.41
2023-08-07T08:15:03.501Z,1004.31
2023-08-07T08:16:00.848Z,1004.34
2023-08-07T08:17:01.040Z,1004.44
2023-08-07T08:18:01.131Z,1004.26
2023-08-07T08:19:01.043Z,1004.33
2023-08-07T08:20:01.440Z,1004.32
2023-08-07T08:21:01.188Z,1004.4
2023-08-07T08:22:01.048Z,1004.4
2023-08-07T08:23:01.103Z,1004.39
2023-08-07T08:24:01.078Z,1004.39
2023-08-07T08:25:01.075Z,1004.34
2023-08-07T08:26:01.470Z,1004.41
2023-08-07T08:27:02.679Z,1004.39
2023-08-07T08:28:01.113Z,1004.39
2023-08-07T08:29:01.037Z,1004.4
2023-08-07T08:30:01.064Z,1004.34
2023-08-07T08:31:01.164Z,1004.34
2023-08-07T08:32:01.920Z,1004.48
2023-08-07T08:33:01.942Z,1004.3
2023-08-07T08:34:01.708Z,1004.4
2023-08-07T08:35:02.448Z,1004.37
2023-08-07T08:36:02.582Z,1004.41
2023-08-07T08:37:01.162Z,1004.36
2023-08-07T08:38:00.723Z,1004.44
2023-08-07T08:39:00.343Z,1004.38
2023-08-07T08:40:00.153Z,1004.44
2023-08-07T08:41:04.229Z,1004.42
2023-08-07T08:42:01.125Z,1004.43
2023-08-07T08:43:01.036Z,1004.43
2023-08-07T08:44:01.089Z,1004.48
2023-08-07T08:45:01.346Z,1004.51
2023-08-07T08:46:06.859Z,1004.5
2023-08-07T08:47:01.553Z,1004.46
2023-08-07T08:48:01.124Z,1004.47
2023-08-07T08:49:01.129Z,1004.5
2023-08-07T08:50:01.115Z,1004.53
2023-08-07T08:51:09.980Z,1004.52
2023-08-07T08:52:01.281Z,1004.52
2023-08-07T08:53:01.419Z,1004.52
2023-08-07T08:54:02.177Z,1004.54
2023-08-07T08:55:04.078Z,1004.51
2023-08-07T08:56:13.838Z,1004.52
2023-08-07T08:57:01.074Z,1004.49
2023-08-07T08:58:01.033Z,1004.54
2023-08-07T08:59:01.118Z,1004.52
2023-08-07T09:00:01.089Z,1004.57
2023-08-07T09:01:16.039Z,1004.58
2023-08-07T09:02:02.147Z,1004.45
2023-08-07T09:03:02.581Z,1004.51
2023-08-07T09:04:01.477Z,1004.47
2023-08-07T09:05:01.563Z,1004.51
2023-08-07T09:06:01.069Z,1004.45
2023-08-07T09:07:01.448Z,1004.46
2023-08-07T09:08:01.150Z,1004.5
2023-08-07T09:09:01.074Z,1004.57
2023-08-07T09:10:01.073Z,1004.6
2023-08-07T09:11:01.061Z,1004.49
2023-08-07T09:12:00.557Z,1004.6
2023-08-07T09:13:00.244Z,1004.57
2023-08-07T09:13:59.821Z,1004.51
2023-08-07T09:15:01.458Z,1004.45
2023-08-07T09:16:04.252Z,1004.57
2023-08-07T09:17:00.804Z,1004.63
2023-08-07T09:18:00.529Z,1004.66
2023-08-07T09:19:01.648Z,1004.72
2023-08-07T09:20:01.625Z,1004.68
2023-08-07T09:21:01.729Z,1004.67
2023-08-07T09:22:01.144Z,1004.71
2023-08-07T09:23:01.127Z,1004.67
2023-08-07T09:24:01.152Z,1004.67
2023-08-07T09:25:01.048Z,1004.77
2023-08-07T09:26:01.034Z,1004.73
2023-08-07T09:27:01.036Z,1004.72
2023-08-07T09:28:01.159Z,1004.76
2023-08-07T09:29:01.073Z,1004.78
2023-08-07T09:30:01.502Z,1004.74
2023-08-07T09:31:01.149Z,1004.67
2023-08-07T09:32:01.089Z,1004.71
2023-08-07T09:33:01.123Z,1004.73
2023-08-07T09:34:01.105Z,1004.7
2023-08-07T09:35:01.111Z,1004.67
2023-08-07T09:36:01.118Z,1004.72
2023-08-07T09:37:01.922Z,1004.76
2023-08-07T09:38:00.750Z,1004.78
2023-08-07T09:39:00.327Z,1004.77
2023-08-07T09:39:59.987Z,1004.76
2023-08-07T09:40:59.583Z,1004.82
2023-08-07T09:42:01.727Z,1004.81
2023-08-07T09:43:01.734Z,1004.8
2023-08-07T09:44:01.450Z,1004.82
2023-08-07T09:45:01.064Z,1004.81
2023-08-07T09:46:02.533Z,1004.77
2023-08-07T09:47:01.795Z,1004.79
2023-08-07T09:48:01.859Z,1004.8
2023-08-07T09:49:01.479Z,1004.82
2023-08-07T09:50:02.125Z,1004.76
2023-08-07T09:51:01.199Z,1004.76
2023-08-07T09:52:01.133Z,1004.78
2023-08-07T09:53:01.126Z,1004.77
2023-08-07T09:54:01.141Z,1004.84
2023-08-07T09:55:01.143Z,1004.85
2023-08-07T09:56:01.145Z,1004.91
2023-08-07T09:57:01.111Z,1004.81
2023-08-07T09:58:01.057Z,1004.86
2023-08-07T09:59:01.447Z,1004.85
2023-08-07T10:00:01.168Z,1004.86
2023-08-07T10:01:01.422Z,1004.91
2023-08-07T10:02:00.282Z,1004.87
2023-08-07T10:03:00.040Z,1004.85
2023-08-07T10:03:59.799Z,1004.86
2023-08-07T10:05:01.757Z,1004.81
2023-08-07T10:06:01.126Z,1004.85
2023-08-07T10:07:01.106Z,1004.85
2023-08-07T10:08:01.116Z,1004.87
2023-08-07T10:09:01.224Z,1004.87
2023-08-07T10:10:01.521Z,1004.79
2023-08-07T10:11:01.246Z,1004.87
2023-08-07T10:12:01.348Z,1004.85
2023-08-07T10:13:02.395Z,1004.78
2023-08-07T10:14:01.727Z,1004.94
2023-08-07T10:15:01.064Z,1004.85
2023-08-07T10:16:01.064Z,1004.79
2023-08-07T10:17:02.309Z,1004.82
2023-08-07T10:18:00.614Z,1004.85
2023-08-07T10:19:00.252Z,1004.77
2023-08-07T10:19:59.944Z,1004.8
2023-08-07T10:20:59.659Z,1004.76
2023-08-07T10:22:04.578Z,1004.85
2023-08-07T10:23:01.427Z,1004.76
2023-08-07T10:24:01.462Z,1004.77
2023-08-07T10:25:02.594Z,1004.75
2023-08-07T10:26:01.467Z,1004.69
2023-08-07T10:27:07.626Z,1004.77
2023-08-07T10:28:01.061Z,1004.73
2023-08-07T10:29:01.045Z,1004.8
2023-08-07T10:30:01.317Z,1004.76
2023-08-07T10:31:01.161Z,1004.77
2023-08-07T10:32:09.818Z,1004.8
2023-08-07T10:33:02.053Z,1004.87
2023-08-07T10:34:01.465Z,1004.79
2023-08-07T10:35:01.416Z,1004.78
2023-08-07T10:36:01.182Z,1004.75
2023-08-07T10:37:13.448Z,1004.79
2023-08-07T10:38:01.512Z,1004.75
2023-08-07T10:39:02.565Z,1004.82
2023-08-07T10:40:02.363Z,1004.77
2023-08-07T10:41:01.174Z,1004.77
2023-08-07T10:42:16.244Z,1004.79
2023-08-07T10:43:01.301Z,1004.81
2023-08-07T10:44:01.164Z,1004.77
2023-08-07T10:45:01.424Z,1004.82
2023-08-07T10:46:01.175Z,1004.96
2023-08-07T10:47:01.402Z,1004.86
2023-08-07T10:48:01.124Z,1004.81
2023-08-07T10:49:01.219Z,1004.83
2023-08-07T10:50:01.146Z,1004.87
2023-08-07T10:51:01.028Z,1004.88
2023-08-07T10:52:01.539Z,1004.83
2023-08-07T10:53:01.109Z,1004.92
2023-08-07T10:54:00.876Z,1004.89
2023-08-07T10:55:00.618Z,1004.84
2023-08-07T10:56:00.369Z,1004.84
2023-08-07T10:57:00.712Z,1004.85
2023-08-07T10:58:00.464Z,1004.78
2023-08-07T10:59:00.223Z,1004.83
2023-08-07T11:00:01.073Z,1004.86
2023-08-07T11:01:01.110Z,1004.82
2023-08-07T11:02:01.687Z,1004.79
2023-08-07T11:03:01.196Z,1004.81
2023-08-07T11:04:01.237Z,1004.83
2023-08-07T11:05:01.502Z,1004.84
2023-08-07T11:06:01.404Z,1004.8
2023-08-07T11:07:02.151Z,1004.74
2023-08-07T11:08:01.167Z,1004.75
2023-08-07T11:09:01.168Z,1004.72
2023-08-07T11:10:01.218Z,1004.74
2023-08-07T11:11:01.158Z,1004.76
2023-08-07T11:12:01.175Z,1004.9
2023-08-07T11:13:01.761Z,1004.76
2023-08-07T11:14:02.407Z,1004.72
2023-08-07T11:15:01.668Z,1004.79
2023-08-07T11:16:04.277Z,1004.74
2023-08-07T11:17:01.126Z,1004.76
2023-08-07T11:18:00.799Z,1004.68
2023-08-07T11:19:00.438Z,1004.74
2023-08-07T11:20:00.079Z,1004.69
2023-08-07T11:20:59.855Z,1004.72
2023-08-07T11:22:02.574Z,1004.7
2023-08-07T11:23:02.649Z,1004.7
2023-08-07T11:24:01.410Z,1004.72
2023-08-07T11:25:01.336Z,1004.61
2023-08-07T11:26:00.977Z,1004.71
2023-08-07T11:27:04.040Z,1004.67
2023-08-07T11:28:01.176Z,1004.67
2023-08-07T11:29:02.004Z,1004.67
2023-08-07T11:30:01.239Z,1004.68
2023-08-07T11:31:01.054Z,1004.7
2023-08-07T11:32:02.491Z,1004.66
2023-08-07T11:33:02.036Z,1004.61
2023-08-07T11:34:01.711Z,1004.64
2023-08-07T11:35:01.183Z,1004.66
2023-08-07T11:36:01.104Z,1004.69
2023-08-07T11:37:01.203Z,1004.71
2023-08-07T11:38:01.038Z,1004.82
2023-08-07T11:39:01.209Z,1004.75
2023-08-07T11:40:01.215Z,1004.77
2023-08-07T11:41:01.111Z,1004.84
2023-08-07T11:42:01.196Z,1004.74
2023-08-07T11:43:01.515Z,1004.91
2023-08-07T11:44:01.124Z,1004.8
2023-08-07T11:45:01.129Z,1004.86
2023-08-07T11:46:01.230Z,1004.79
2023-08-07T11:47:01.160Z,1004.85
2023-08-07T11:48:01.191Z,1004.89
2023-08-07T11:49:01.154Z,1004.87
2023-08-07T11:50:01.124Z,1004.88
2023-08-07T11:51:01.110Z,1004.88
2023-08-07T11:52:01.273Z,1004.84
2023-08-07T11:53:01.502Z,1004.86
2023-08-07T11:54:01.295Z,1004.94
2023-08-07T11:55:02.381Z,1004.91
2023-08-07T11:56:02.082Z,1004.94
2023-08-07T11:57:01.333Z,1004.89
2023-08-07T11:58:01.567Z,1004.86
2023-08-07T11:59:01.067Z,1004.87
2023-08-07T12:00:01.216Z,1004.78
2023-08-07T12:01:02.094Z,1004.85
2023-08-07T12:02:01.434Z,1004.78
2023-08-07T12:03:01.948Z,1004.92
2023-08-07T12:04:02.494Z,1004.85
2023-08-07T12:05:01.077Z,1004.84
2023-08-07T12:06:00.511Z,1004.82
2023-08-07T12:07:00.672Z,1004.84
2023-08-07T12:08:04.933Z,1004.79
2023-08-07T12:09:02.222Z,1004.85